1H1 weather

Airlane Enterprises Airport
Clay, New York, United States

Public forecast

Using degrees Fahrenheit for public forecast. Weather courtesy of forecast.io.

Closest aviation weather report (METAR) to Airlane Enterprises Airport

Closest report is Syracuse Hancock International Airport, 6.5 nm (12.0 km) SSE. Retrieved 2019/11/11 20:31 UTC (0 seconds ago):

KSYR 112031Z 35007KT 3SM -SN BR FEW007 BKN016 OVC029 M01/M02 A3007 RMK AO2 VIS 2 NW CIG 009 NW P0001 T10061022

Closest aviation forecast (TAF) to Airlane Enterprises Airport

Closest forecast is Syracuse Hancock International Airport, 6.5 nm (12.0 km) SSE. Retrieved 2019/11/11 18:33 UTC (2 hours ago):

TAF KSYR 111729Z 1118/1218 01005KT 3SM -SN BR BKN015 OVC040 FM112000 01005KT 2SM -SN OVC007 TEMPO 1201/1204 -FZRAPL FM120400 35007KT 3/4SM -SN OVC009 FM121000 33009KT 5SM -SN OVC015 FM121500 33010G20KT 2SM -SHSN OVC012